Time;durP1;ratioP1;P1;durP2;ratioP2;P2;SDS_P1;SDS_P2;PMS_P1;PMS_P2;Temp;Humidity;BMP_temperature;BMP_pressure;BME280_temperature;BME280_humidity;BME280_pressure;Samples;Min_cycle;Max_cycle;Signal;HPM_P1;HPM_P2
2022/07/27 00:01:45;;;;;;;23.03;10.77;;;;;;;;;;3352414;42;20367;-57
2022/07/27 00:04:11;;;;;;;26.25;10.55;;;;;;;;;;3354154;42;20084;-58
2022/07/27 00:06:37;;;;;;;21.90;10.53;;;;;;;;;;3349181;42;20098;-57
2022/07/27 00:09:03;;;;;;;24.92;10.48;;;;;;;;;;3354260;42;20085;-58
2022/07/27 00:11:29;;;;;;;23.83;10.82;;;;;;;;;;3346753;42;20107;-58
2022/07/27 00:13:55;;;;;;;28.43;11.30;;;;;;;;;;3353170;42;20076;-58
2022/07/27 00:16:21;;;;;;;25.77;10.77;;;;;;;;;;3350870;42;20276;-59
2022/07/27 00:18:46;;;;;;;23.65;11.57;;;;;;;;;;3355171;42;20096;-58
2022/07/27 00:21:13;;;;;;;25.33;12.18;;;;;;;;;;3351059;42;20577;-58
2022/07/27 00:23:39;;;;;;;30.23;12.63;;;;;;;;;;3357847;42;20682;-58
2022/07/27 00:26:05;;;;;;;31.25;11.98;;;;;;;;;;3352766;42;20216;-58
2022/07/27 00:28:31;;;;;;;24.17;11.80;;;;;;;;;;3352413;42;20189;-59
2022/07/27 00:30:57;;;;;;;24.87;11.00;;;;;;;;;;3357275;42;20107;-59
2022/07/27 00:33:23;;;;;;;25.02;12.05;;;;;;;;;;3347441;42;20110;-58
2022/07/27 00:35:49;;;;;;;27.90;11.15;;;;;;;;;;3357964;42;20159;-57
2022/07/27 00:38:15;;;;;;;31.33;10.73;;;;;;;;;;3350554;42;20095;-58
2022/07/27 00:40:41;;;;;;;22.23;10.10;;;;;;;;;;3352530;42;20155;-57
2022/07/27 00:43:07;;;;;;;24.77;10.38;;;;;;;;;;3357646;42;20092;-58
2022/07/27 00:45:32;;;;;;;22.83;10.10;;;;;;;;;;3352804;42;20159;-57
2022/07/27 00:47:58;;;;;;;25.33;11.20;;;;;;;;;;3345262;42;20231;-57
2022/07/27 00:50:24;;;;;;;22.80;10.68;;;;;;;;;;3344736;42;20498;-58
2022/07/27 00:52:50;;;;;;;20.63;10.45;;;;;;;;;;3356984;42;20207;-58
2022/07/27 00:55:16;;;;;;;22.20;10.30;;;;;;;;;;3354307;42;20093;-58
2022/07/27 00:57:42;;;;;;;19.63;10.67;;;;;;;;;;3352812;42;20359;-58
2022/07/27 01:00:09;;;;;;;18.25;9.88;;;;;;;;;;3353878;42;20080;-57
2022/07/27 01:02:35;;;;;;;20.75;9.48;;;;;;;;;;3353170;42;20502;-57
2022/07/27 01:05:01;;;;;;;18.70;9.90;;;;;;;;;;3354772;42;20539;-58
2022/07/27 01:07:30;;;;;;;18.53;10.30;;;;;;;;;;3353577;42;20296;-58
2022/07/27 01:09:57;;;;;;;19.88;10.05;;;;;;;;;;3343493;42;20092;-59
2022/07/27 01:12:28;;;;;;;17.23;9.80;;;;;;;;;;3357188;42;20093;-58
2022/07/27 01:14:54;;;;;;;17.13;9.93;;;;;;;;;;3353389;42;20101;-58
2022/07/27 01:17:20;;;;;;;17.55;9.23;;;;;;;;;;3352543;42;20577;-58
2022/07/27 01:19:46;;;;;;;16.53;9.40;;;;;;;;;;3345974;42;20748;-58
2022/07/27 01:22:12;;;;;;;19.50;9.95;;;;;;;;;;3354984;42;20103;-61
2022/07/27 01:24:38;;;;;;;17.30;9.48;;;;;;;;;;3353863;42;20159;-58
2022/07/27 01:27:04;;;;;;;16.80;9.07;;;;;;;;;;3352535;42;20170;-57
2022/07/27 01:29:30;;;;;;;18.80;8.93;;;;;;;;;;3352692;42;20100;-62
2022/07/27 01:31:56;;;;;;;14.50;8.95;;;;;;;;;;3352890;42;20092;-58
2022/07/27 01:34:22;;;;;;;17.77;9.20;;;;;;;;;;3353865;42;20099;-56
2022/07/27 01:36:48;;;;;;;19.55;9.05;;;;;;;;;;3351514;42;20089;-57
2022/07/27 01:39:15;;;;;;;20.60;8.80;;;;;;;;;;3354623;42;20155;-58
2022/07/27 01:41:41;;;;;;;20.15;8.70;;;;;;;;;;3343274;42;20096;-60
2022/07/27 01:44:07;;;;;;;17.60;8.95;;;;;;;;;;3354168;42;20114;-58
2022/07/27 01:46:33;;;;;;;17.77;9.07;;;;;;;;;;3341477;42;20088;-58
2022/07/27 01:48:59;;;;;;;20.10;8.67;;;;;;;;;;3355459;42;20088;-57
2022/07/27 01:51:25;;;;;;;17.98;8.50;;;;;;;;;;3345818;42;20653;-58
2022/07/27 01:53:50;;;;;;;16.38;8.27;;;;;;;;;;3346388;42;20091;-57
2022/07/27 01:56:16;;;;;;;15.33;8.03;;;;;;;;;;3358864;42;20090;-56
2022/07/27 01:58:42;;;;;;;14.73;7.77;;;;;;;;;;3355754;42;20308;-59
2022/07/27 02:01:08;;;;;;;13.45;7.35;;;;;;;;;;3356324;42;20112;-59
2022/07/27 02:03:34;;;;;;;14.57;8.00;;;;;;;;;;3347549;42;20409;-59
2022/07/27 02:06:00;;;;;;;17.80;7.60;;;;;;;;;;3353122;42;20088;-59
2022/07/27 02:08:26;;;;;;;16.63;7.55;;;;;;;;;;3346181;42;20166;-58
2022/07/27 02:13:37;;;;;;;15.30;8.25;;;;;;;;;;3353907;42;20139;-57
2022/07/27 02:16:03;;;;;;;15.10;7.60;;;;;;;;;;3354108;42;20577;-57
2022/07/27 02:18:29;;;;;;;20.13;8.63;;;;;;;;;;3359628;42;20380;-59
2022/07/27 02:20:55;;;;;;;15.35;7.85;;;;;;;;;;3354534;42;20506;-57
2022/07/27 02:23:21;;;;;;;16.15;8.38;;;;;;;;;;3357156;42;20098;-57
2022/07/27 02:25:47;;;;;;;18.27;9.03;;;;;;;;;;3354090;42;20103;-57
2022/07/27 02:28:13;;;;;;;18.50;8.63;;;;;;;;;;3351757;42;20096;-58
2022/07/27 02:30:39;;;;;;;16.83;8.77;;;;;;;;;;3354543;42;20085;-57
2022/07/27 02:33:05;;;;;;;18.58;9.48;;;;;;;;;;3358651;42;20082;-57
2022/07/27 02:35:31;;;;;;;33.03;13.10;;;;;;;;;;3354423;42;20084;-57
2022/07/27 02:37:56;;;;;;;37.47;15.40;;;;;;;;;;3353705;42;20494;-55
2022/07/27 02:40:22;;;;;;;36.03;14.90;;;;;;;;;;3353284;42;20107;-54
2022/07/27 02:42:48;;;;;;;33.07;13.10;;;;;;;;;;3344761;42;20135;-57
2022/07/27 02:45:14;;;;;;;34.80;14.20;;;;;;;;;;3359446;42;20276;-56
2022/07/27 02:47:41;;;;;;;30.23;13.25;;;;;;;;;;3355395;42;20106;-53
2022/07/27 02:50:08;;;;;;;33.95;12.70;;;;;;;;;;3349797;42;20096;-57
2022/07/27 02:52:35;;;;;;;33.85;13.68;;;;;;;;;;3355423;42;20602;-57
2022/07/27 02:55:01;;;;;;;22.90;10.05;;;;;;;;;;3354243;42;20081;-57
2022/07/27 02:57:27;;;;;;;30.30;12.83;;;;;;;;;;3353921;42;20162;-58
2022/07/27 02:59:52;;;;;;;29.75;13.55;;;;;;;;;;3357651;42;20081;-56
2022/07/27 03:02:18;;;;;;;26.02;13.27;;;;;;;;;;3353218;42;20151;-57
2022/07/27 03:04:44;;;;;;;27.27;14.10;;;;;;;;;;3353332;42;20100;-57
2022/07/27 03:07:10;;;;;;;32.67;13.82;;;;;;;;;;3358642;42;20206;-58
2022/07/27 03:09:36;;;;;;;30.15;13.80;;;;;;;;;;3355018;42;20197;-57
2022/07/27 03:12:02;;;;;;;30.58;14.23;;;;;;;;;;3353333;42;20088;-56
2022/07/27 03:14:28;;;;;;;39.80;15.25;;;;;;;;;;3354537;42;20085;-61
2022/07/27 03:16:54;;;;;;;30.43;16.83;;;;;;;;;;3355707;42;20160;-57
2022/07/27 03:19:20;;;;;;;32.70;16.02;;;;;;;;;;3356553;42;20092;-56
2022/07/27 03:21:46;;;;;;;32.13;16.15;;;;;;;;;;3353073;42;20080;-57
2022/07/27 03:24:12;;;;;;;30.90;14.57;;;;;;;;;;3353916;42;20076;-57
2022/07/27 03:26:37;;;;;;;26.92;13.48;;;;;;;;;;3352926;42;20084;-57
2022/07/27 03:29:03;;;;;;;30.43;12.67;;;;;;;;;;3355017;42;20087;-57
2022/07/27 03:31:29;;;;;;;29.33;12.35;;;;;;;;;;3353243;42;20089;-57
2022/07/27 03:33:55;;;;;;;29.90;13.05;;;;;;;;;;3352651;42;20551;-58
2022/07/27 03:36:21;;;;;;;27.67;13.27;;;;;;;;;;3354447;42;20565;-57
2022/07/27 03:38:47;;;;;;;33.33;14.27;;;;;;;;;;3351116;42;20555;-57
2022/07/27 03:41:13;;;;;;;35.25;16.05;;;;;;;;;;3355250;42;20097;-56
2022/07/27 03:43:39;;;;;;;39.50;17.80;;;;;;;;;;3356583;42;20084;-56
2022/07/27 03:46:05;;;;;;;35.00;17.13;;;;;;;;;;3358376;42;20547;-58
2022/07/27 03:48:31;;;;;;;31.50;16.47;;;;;;;;;;3352571;42;20092;-57
2022/07/27 03:50:57;;;;;;;39.38;18.48;;;;;;;;;;3355840;42;20521;-57
2022/07/27 03:53:23;;;;;;;38.13;17.85;;;;;;;;;;3355048;42;20096;-58
2022/07/27 03:55:49;;;;;;;38.67;17.30;;;;;;;;;;3355076;42;20080;-58
2022/07/27 03:58:16;;;;;;;37.50;18.20;;;;;;;;;;3356374;42;20085;-60
2022/07/27 04:00:45;;;;;;;39.67;17.00;;;;;;;;;;3353892;42;20139;-58
2022/07/27 04:03:11;;;;;;;34.17;15.93;;;;;;;;;;3352226;42;20085;-61
2022/07/27 04:05:37;;;;;;;33.38;14.75;;;;;;;;;;3352857;42;20081;-58
2022/07/27 04:08:03;;;;;;;27.77;13.85;;;;;;;;;;3354185;42;20150;-55
2022/07/27 04:10:29;;;;;;;28.00;12.60;;;;;;;;;;3350031;42;20124;-58
2022/07/27 04:12:55;;;;;;;25.98;12.43;;;;;;;;;;3355852;42;20099;-58
2022/07/27 04:15:21;;;;;;;23.15;11.10;;;;;;;;;;3352344;42;20555;-57
2022/07/27 04:17:47;;;;;;;22.20;9.90;;;;;;;;;;3353310;42;20559;-55
2022/07/27 04:20:13;;;;;;;17.97;9.37;;;;;;;;;;3351910;42;20124;-58
2022/07/27 04:22:39;;;;;;;17.23;9.45;;;;;;;;;;3357429;42;20076;-57
2022/07/27 04:25:06;;;;;;;17.90;9.65;;;;;;;;;;3353997;42;20077;-57
2022/07/27 04:27:32;;;;;;;17.70;11.15;;;;;;;;;;3354468;42;20127;-58
2022/07/27 04:29:57;;;;;;;23.83;12.80;;;;;;;;;;3359888;42;20551;-59
2022/07/27 04:32:23;;;;;;;26.27;14.05;;;;;;;;;;3352515;42;20171;-57
2022/07/27 04:34:49;;;;;;;30.73;17.00;;;;;;;;;;3352989;42;20120;-58
2022/07/27 04:37:15;;;;;;;32.25;16.20;;;;;;;;;;3356310;42;20623;-58
2022/07/27 04:39:41;;;;;;;29.53;15.70;;;;;;;;;;3350288;42;20544;-58
2022/07/27 04:42:07;;;;;;;29.35;15.25;;;;;;;;;;3353197;42;20183;-58
2022/07/27 04:44:33;;;;;;;24.27;13.43;;;;;;;;;;3349088;42;20550;-57
2022/07/27 04:46:59;;;;;;;27.98;14.70;;;;;;;;;;3351399;42;20627;-59
2022/07/27 04:49:26;;;;;;;35.30;15.27;;;;;;;;;;3342489;42;20120;-57
2022/07/27 04:51:52;;;;;;;35.05;17.40;;;;;;;;;;3344671;42;20531;-55
2022/07/27 04:54:18;;;;;;;41.97;19.05;;;;;;;;;;3354363;42;20112;-56
2022/07/27 04:56:44;;;;;;;35.95;19.00;;;;;;;;;;3354049;42;20090;-57
2022/07/27 04:59:10;;;;;;;43.10;19.43;;;;;;;;;;3350426;42;20752;-57
2022/07/27 05:01:36;;;;;;;42.17;20.42;;;;;;;;;;3353925;42;20171;-57
2022/07/27 05:04:03;;;;;;;44.25;21.20;;;;;;;;;;3357371;42;20092;-60
2022/07/27 05:06:31;;;;;;;45.17;20.90;;;;;;;;;;3357360;42;20582;-58
2022/07/27 05:08:58;;;;;;;56.50;23.57;;;;;;;;;;3349190;42;20096;-59
2022/07/27 05:11:24;;;;;;;57.97;26.23;;;;;;;;;;3354746;42;20175;-57
2022/07/27 05:13:50;;;;;;;64.60;28.05;;;;;;;;;;3350197;42;20080;-54
2022/07/27 05:16:16;;;;;;;68.38;29.30;;;;;;;;;;3357957;42;20083;-56
2022/07/27 05:18:42;;;;;;;76.30;29.80;;;;;;;;;;3354628;42;20270;-60
2022/07/27 05:21:09;;;;;;;59.13;24.85;;;;;;;;;;3352346;42;20096;-57
2022/07/27 05:23:35;;;;;;;50.35;22.85;;;;;;;;;;3356884;42;20095;-57
2022/07/27 05:26:01;;;;;;;43.72;18.40;;;;;;;;;;3354128;42;20080;-58
2022/07/27 05:28:27;;;;;;;39.43;16.17;;;;;;;;;;3353711;42;20092;-56
2022/07/27 05:30:53;;;;;;;35.63;16.73;;;;;;;;;;3350245;42;20355;-57
2022/07/27 05:33:19;;;;;;;31.48;13.02;;;;;;;;;;3351904;42;20085;-63
2022/07/27 05:35:45;;;;;;;27.85;12.02;;;;;;;;;;3353574;42;20563;-62
2022/07/27 05:38:11;;;;;;;23.65;11.82;;;;;;;;;;3348689;42;20590;-62
2022/07/27 05:40:37;;;;;;;32.80;12.63;;;;;;;;;;3355221;42;20574;-64
2022/07/27 05:43:03;;;;;;;32.55;14.65;;;;;;;;;;3349496;42;20611;-63
2022/07/27 05:45:29;;;;;;;23.85;12.70;;;;;;;;;;3353664;42;20081;-62
2022/07/27 05:47:57;;;;;;;22.27;11.87;;;;;;;;;;3349096;42;20107;-63
2022/07/27 05:50:23;;;;;;;26.85;13.00;;;;;;;;;;3355536;42;20468;-62
2022/07/27 05:52:49;;;;;;;21.13;11.80;;;;;;;;;;3341700;42;20559;-65
2022/07/27 05:55:15;;;;;;;24.30;12.10;;;;;;;;;;3352455;42;20097;-63
2022/07/27 05:57:41;;;;;;;21.13;12.23;;;;;;;;;;3353637;42;20590;-63
2022/07/27 06:00:08;;;;;;;23.77;12.98;;;;;;;;;;3354477;42;20164;-62
2022/07/27 06:02:34;;;;;;;20.33;10.07;;;;;;;;;;3348028;42;20176;-62
2022/07/27 06:05:00;;;;;;;14.15;7.40;;;;;;;;;;3351440;42;20080;-65
2022/07/27 06:10:10;;;;;;;10.27;7.20;;;;;;;;;;3352943;42;20107;-66
2022/07/27 06:12:40;;;;;;;12.38;7.25;;;;;;;;;;3349196;42;20565;-66
2022/07/27 06:15:07;;;;;;;13.75;7.32;;;;;;;;;;3343151;42;20506;-62
2022/07/27 06:17:33;;;;;;;11.73;7.25;;;;;;;;;;3353103;42;20080;-62
2022/07/27 06:20:00;;;;;;;13.23;6.70;;;;;;;;;;3347708;42;20100;-62
2022/07/27 06:22:25;;;;;;;14.35;7.68;;;;;;;;;;3353525;42;20607;-63
2022/07/27 06:24:52;;;;;;;11.50;7.22;;;;;;;;;;3353979;42;20088;-63
2022/07/27 06:27:18;;;;;;;10.57;6.57;;;;;;;;;;3351233;42;20111;-62
2022/07/27 06:29:44;;;;;;;9.90;6.20;;;;;;;;;;3347060;42;20096;-63
2022/07/27 06:32:10;;;;;;;10.75;6.20;;;;;;;;;;3343652;42;20163;-61
2022/07/27 06:34:36;;;;;;;10.00;5.70;;;;;;;;;;3355258;42;20080;-61
2022/07/27 06:37:02;;;;;;;12.87;6.13;;;;;;;;;;3354735;42;20076;-62
2022/07/27 06:39:28;;;;;;;10.40;6.20;;;;;;;;;;3353026;42;20436;-62
2022/07/27 06:41:55;;;;;;;11.68;6.20;;;;;;;;;;3351936;42;20477;-61
2022/07/27 06:44:21;;;;;;;9.68;5.80;;;;;;;;;;3346794;42;20143;-61
2022/07/27 06:46:47;;;;;;;11.35;6.28;;;;;;;;;;3356928;42;20126;-61
2022/07/27 06:49:13;;;;;;;10.63;6.30;;;;;;;;;;3355905;42;20546;-62
2022/07/27 06:51:39;;;;;;;11.32;6.30;;;;;;;;;;3346061;42;20506;-61
2022/07/27 06:54:05;;;;;;;10.57;6.07;;;;;;;;;;3342418;42;20107;-63
2022/07/27 06:56:31;;;;;;;10.18;6.57;;;;;;;;;;3354006;42;20089;-63
2022/07/27 06:58:57;;;;;;;10.63;6.27;;;;;;;;;;3347409;42;20566;-62
2022/07/27 07:01:23;;;;;;;10.25;6.05;;;;;;;;;;3352069;42;20107;-63
2022/07/27 07:03:49;;;;;;;12.02;6.30;;;;;;;;;;3352034;42;20081;-61
2022/07/27 07:06:15;;;;;;;10.25;5.60;;;;;;;;;;3347754;42;20156;-60
2022/07/27 07:08:41;;;;;;;8.70;4.90;;;;;;;;;;3342863;42;20553;-61
2022/07/27 07:11:09;;;;;;;12.02;5.22;;;;;;;;;;3349350;42;20076;-61
2022/07/27 07:13:35;;;;;;;9.52;4.93;;;;;;;;;;3351442;42;20595;-61
2022/07/27 07:16:01;;;;;;;10.68;6.28;;;;;;;;;;3353421;42;20559;-61
2022/07/27 07:18:26;;;;;;;9.30;5.03;;;;;;;;;;3352066;42;20093;-60
2022/07/27 07:20:53;;;;;;;9.55;5.40;;;;;;;;;;3352220;42;20566;-61
2022/07/27 07:23:19;;;;;;;8.98;5.40;;;;;;;;;;3355942;42;20215;-62
2022/07/27 07:25:45;;;;;;;12.02;5.22;;;;;;;;;;3351210;42;20252;-62
2022/07/27 07:28:11;;;;;;;9.53;5.30;;;;;;;;;;3351843;42;20100;-63
2022/07/27 07:30:37;;;;;;;9.20;4.65;;;;;;;;;;3351073;42;20569;-62
2022/07/27 07:33:03;;;;;;;8.60;4.90;;;;;;;;;;3336831;42;20211;-66
2022/07/27 07:35:29;;;;;;;7.93;4.47;;;;;;;;;;3344511;42;20619;-61
2022/07/27 07:37:55;;;;;;;8.93;5.07;;;;;;;;;;3343252;42;20088;-64
2022/07/27 07:40:20;;;;;;;9.73;4.97;;;;;;;;;;3352581;42;20152;-61
2022/07/27 07:42:52;;;;;;;16.95;6.32;;;;;;;;;;3351183;42;20555;-61
2022/07/27 07:45:18;;;;;;;9.65;4.82;;;;;;;;;;3348144;42;20097;-62
2022/07/27 07:47:44;;;;;;;9.70;4.97;;;;;;;;;;3354659;42;20096;-61
2022/07/27 07:50:09;;;;;;;9.98;5.20;;;;;;;;;;3341030;42;20085;-62
2022/07/27 07:52:36;;;;;;;10.50;5.28;;;;;;;;;;3344827;42;20095;-61
2022/07/27 07:55:02;;;;;;;11.23;5.53;;;;;;;;;;3341627;42;20092;-63
2022/07/27 07:57:28;;;;;;;11.15;5.57;;;;;;;;;;3356833;42;20615;-61
2022/07/27 07:59:54;;;;;;;9.20;5.20;;;;;;;;;;3353136;42;20197;-63
2022/07/27 08:02:20;;;;;;;11.82;5.70;;;;;;;;;;3353880;42;20116;-62
2022/07/27 08:04:46;;;;;;;12.38;5.75;;;;;;;;;;3348698;42;20100;-61
2022/07/27 08:07:12;;;;;;;14.10;5.28;;;;;;;;;;3344198;42;20107;-64
2022/07/27 08:09:38;;;;;;;13.47;5.77;;;;;;;;;;3354154;42;20092;-64
2022/07/27 08:12:05;;;;;;;11.30;6.03;;;;;;;;;;3345092;42;20131;-66
2022/07/27 08:14:32;;;;;;;12.80;5.53;;;;;;;;;;3352259;42;20080;-63
2022/07/27 08:16:58;;;;;;;9.48;5.07;;;;;;;;;;3346824;42;20152;-64
2022/07/27 08:19:24;;;;;;;11.03;5.27;;;;;;;;;;3353849;42;20080;-65
2022/07/27 08:21:50;;;;;;;7.80;4.63;;;;;;;;;;3350817;42;20089;-65
2022/07/27 08:24:15;;;;;;;9.05;4.80;;;;;;;;;;3353741;42;20650;-63
2022/07/27 08:26:42;;;;;;;9.10;4.53;;;;;;;;;;3353120;42;20105;-63
2022/07/27 08:29:07;;;;;;;7.18;4.25;;;;;;;;;;3354090;42;20104;-64
2022/07/27 08:31:33;;;;;;;10.13;4.43;;;;;;;;;;3342928;42;20139;-64
2022/07/27 08:33:59;;;;;;;7.35;4.00;;;;;;;;;;3351889;42;20084;-62
2022/07/27 08:36:27;;;;;;;8.40;5.10;;;;;;;;;;3347823;42;20104;-63
2022/07/27 08:38:53;;;;;;;9.40;4.80;;;;;;;;;;3349357;42;20103;-63
2022/07/27 08:41:19;;;;;;;8.32;4.80;;;;;;;;;;3348898;42;20097;-63
2022/07/27 08:43:45;;;;;;;9.43;4.70;;;;;;;;;;3346383;42;20126;-62
2022/07/27 08:46:11;;;;;;;8.33;4.30;;;;;;;;;;3338891;42;20144;-63
2022/07/27 08:48:37;;;;;;;9.48;4.22;;;;;;;;;;3342558;42;20123;-63
2022/07/27 08:51:06;;;;;;;9.38;4.60;;;;;;;;;;3343443;42;20092;-63
2022/07/27 08:53:32;;;;;;;8.98;4.63;;;;;;;;;;3353322;42;20512;-62
2022/07/27 08:55:58;;;;;;;9.82;4.70;;;;;;;;;;3356677;42;20495;-63
2022/07/27 08:58:24;;;;;;;7.10;4.03;;;;;;;;;;3342191;42;20589;-62
2022/07/27 09:00:50;;;;;;;9.45;4.82;;;;;;;;;;3354582;42;20100;-63
2022/07/27 09:03:17;;;;;;;7.30;4.30;;;;;;;;;;3351536;42;20156;-62
2022/07/27 09:05:44;;;;;;;9.63;4.28;;;;;;;;;;3348405;42;20094;-63
2022/07/27 09:08:11;;;;;;;10.27;5.10;;;;;;;;;;3351440;42;20196;-62
2022/07/27 09:10:37;;;;;;;11.18;4.80;;;;;;;;;;3348271;42;20092;-62
2022/07/27 09:13:36;;;;;;;11.35;5.00;;;;;;;;;;3356987;42;20092;-64
2022/07/27 09:16:04;;;;;;;8.55;4.70;;;;;;;;;;3336711;42;20093;-63
2022/07/27 09:18:32;;;;;;;10.43;5.43;;;;;;;;;;3354996;42;20084;-64
2022/07/27 09:21:22;;;;;;;11.03;5.27;;;;;;;;;;3352699;42;20159;-63
2022/07/27 09:23:58;;;;;;;7.85;4.53;;;;;;;;;;3343916;42;20107;-63
2022/07/27 09:26:26;;;;;;;8.05;4.68;;;;;;;;;;3354653;42;20551;-63
2022/07/27 09:28:53;;;;;;;8.38;4.82;;;;;;;;;;3345830;42;20104;-64
2022/07/27 09:31:19;;;;;;;8.93;4.93;;;;;;;;;;3342903;42;20096;-63
2022/07/27 09:33:50;;;;;;;10.70;5.00;;;;;;;;;;3348212;42;20107;-63
2022/07/27 09:36:17;;;;;;;8.70;4.68;;;;;;;;;;3348230;42;20096;-64
2022/07/27 09:38:50;;;;;;;9.00;4.55;;;;;;;;;;3341671;42;20165;-64
2022/07/27 09:41:17;;;;;;;13.73;4.45;;;;;;;;;;3352617;42;20161;-63
2022/07/27 09:43:52;;;;;;;8.40;4.55;;;;;;;;;;3356988;42;20107;-64
2022/07/27 09:46:33;;;;;;;10.53;4.27;;;;;;;;;;3355763;42;20140;-65
2022/07/27 09:49:00;;;;;;;11.68;4.60;;;;;;;;;;3351962;42;20143;-63
2022/07/27 09:51:26;;;;;;;7.75;4.65;;;;;;;;;;3344468;42;20080;-63
2022/07/27 09:53:52;;;;;;;8.20;4.40;;;;;;;;;;3348116;42;20112;-63
2022/07/27 09:56:27;;;;;;;7.90;4.70;;;;;;;;;;3353103;42;20159;-63
2022/07/27 09:58:57;;;;;;;7.87;4.37;;;;;;;;;;3334418;42;20139;-64
2022/07/27 10:01:28;;;;;;;7.55;4.10;;;;;;;;;;3345379;42;20634;-63
2022/07/27 10:03:55;;;;;;;9.20;3.83;;;;;;;;;;3353049;42;20093;-63
2022/07/27 10:06:22;;;;;;;7.88;4.22;;;;;;;;;;3347809;42;20128;-63
2022/07/27 10:08:49;;;;;;;9.48;4.70;;;;;;;;;;3353578;42;20095;-64
2022/07/27 10:11:15;;;;;;;9.47;4.43;;;;;;;;;;3353588;42;20085;-63
2022/07/27 10:13:41;;;;;;;11.20;4.80;;;;;;;;;;3353265;42;20107;-65
2022/07/27 10:16:11;;;;;;;11.75;4.47;;;;;;;;;;3354258;42;20099;-65
2022/07/27 10:18:47;;;;;;;8.80;4.25;;;;;;;;;;3345397;42;20095;-63
2022/07/27 10:21:13;;;;;;;10.60;4.70;;;;;;;;;;3348300;42;20104;-63
2022/07/27 10:23:39;;;;;;;10.80;5.03;;;;;;;;;;3349388;42;20107;-64
2022/07/27 10:26:14;;;;;;;11.40;5.30;;;;;;;;;;3354246;42;20480;-64
2022/07/27 10:28:59;;;;;;;12.32;4.80;;;;;;;;;;3354008;42;20191;-64
2022/07/27 10:31:27;;;;;;;9.55;4.50;;;;;;;;;;3341300;42;20558;-64
2022/07/27 10:33:57;;;;;;;8.97;4.30;;;;;;;;;;3353034;42;20100;-63
2022/07/27 10:36:23;;;;;;;9.98;4.68;;;;;;;;;;3347526;42;20080;-63
2022/07/27 10:38:51;;;;;;;9.73;4.30;;;;;;;;;;3352902;42;20147;-64
2022/07/27 10:41:29;;;;;;;7.78;4.18;;;;;;;;;;3349240;42;20176;-64
2022/07/27 10:44:13;;;;;;;8.73;4.10;;;;;;;;;;3351986;42;20080;-64
2022/07/27 10:46:43;;;;;;;8.27;4.37;;;;;;;;;;3352127;42;20183;-64
2022/07/27 10:49:33;;;;;;;7.97;4.28;;;;;;;;;;3354516;42;20089;-63
2022/07/27 10:51:59;;;;;;;8.73;4.53;;;;;;;;;;3340742;42;20140;-64
2022/07/27 10:54:35;;;;;;;10.23;4.60;;;;;;;;;;3354514;42;20128;-63
2022/07/27 10:57:03;;;;;;;9.18;4.45;;;;;;;;;;3354730;42;20532;-64
2022/07/27 10:59:38;;;;;;;7.70;4.37;;;;;;;;;;3353424;42;20092;-63
2022/07/27 11:02:08;;;;;;;8.48;4.38;;;;;;;;;;3353725;42;20628;-64
2022/07/27 11:04:51;;;;;;;9.35;5.00;;;;;;;;;;3345280;42;20155;-65
2022/07/27 11:07:21;;;;;;;11.43;5.15;;;;;;;;;;3352582;42;20107;-64
2022/07/27 11:09:48;;;;;;;11.60;5.10;;;;;;;;;;3344828;42;20093;-63
2022/07/27 11:12:15;;;;;;;9.13;4.67;;;;;;;;;;3343362;42;20651;-64
2022/07/27 11:14:51;;;;;;;13.75;4.72;;;;;;;;;;3347269;42;20097;-63
2022/07/27 11:17:19;;;;;;;12.77;4.93;;;;;;;;;;3346395;42;20127;-63
2022/07/27 11:19:54;;;;;;;9.68;4.95;;;;;;;;;;3342187;42;20137;-63
2022/07/27 11:22:30;;;;;;;11.85;5.38;;;;;;;;;;3354945;42;20147;-63
2022/07/27 11:24:56;;;;;;;10.33;4.83;;;;;;;;;;3345626;42;20107;-63
2022/07/27 11:27:22;;;;;;;9.30;4.60;;;;;;;;;;3344495;42;20143;-65
2022/07/27 11:29:48;;;;;;;10.57;4.63;;;;;;;;;;3353015;42;20094;-64
2022/07/27 11:32:18;;;;;;;9.00;4.97;;;;;;;;;;3353238;42;20091;-63
2022/07/27 11:34:44;;;;;;;8.40;4.55;;;;;;;;;;3345018;42;20099;-63
2022/07/27 11:37:18;;;;;;;10.52;5.10;;;;;;;;;;3356441;42;20072;-63
2022/07/27 11:39:44;;;;;;;9.98;5.32;;;;;;;;;;3354378;42;20085;-64
2022/07/27 11:42:11;;;;;;;10.23;5.03;;;;;;;;;;3354106;42;20096;-66
2022/07/27 11:44:38;;;;;;;9.77;5.30;;;;;;;;;;3347326;42;20092;-64
2022/07/27 11:47:04;;;;;;;9.43;4.68;;;;;;;;;;3342439;42;20096;-63
2022/07/27 11:49:31;;;;;;;10.80;5.00;;;;;;;;;;3357498;42;20114;-64
2022/07/27 11:52:02;;;;;;;10.07;4.97;;;;;;;;;;3346459;42;20101;-62
2022/07/27 11:54:30;;;;;;;9.73;4.50;;;;;;;;;;3348559;42;20100;-64
2022/07/27 11:57:04;;;;;;;10.07;4.60;;;;;;;;;;3343017;42;20112;-64
2022/07/27 11:59:33;;;;;;;9.30;4.75;;;;;;;;;;3356342;42;20092;-62
2022/07/27 12:02:01;;;;;;;8.88;4.93;;;;;;;;;;3357837;42;20104;-64
2022/07/27 12:04:35;;;;;;;9.45;5.40;;;;;;;;;;3345621;42;20686;-63
2022/07/27 12:07:05;;;;;;;9.35;4.78;;;;;;;;;;3359598;42;20083;-62
2022/07/27 12:09:38;;;;;;;8.63;4.97;;;;;;;;;;3359090;42;20096;-63
2022/07/27 12:12:12;;;;;;;10.57;5.40;;;;;;;;;;3351457;42;20091;-62
2022/07/27 12:14:40;;;;;;;9.55;5.20;;;;;;;;;;3348588;42;20092;-63
2022/07/27 12:17:17;;;;;;;10.52;5.00;;;;;;;;;;3350566;42;20160;-64
2022/07/27 12:20:13;;;;;;;8.85;4.97;;;;;;;;;;3348248;42;20099;-63
2022/07/27 12:22:44;;;;;;;10.17;5.20;;;;;;;;;;3354540;42;20167;-65
2022/07/27 12:25:20;;;;;;;8.90;5.20;;;;;;;;;;3351473;42;20096;-63
2022/07/27 12:27:57;;;;;;;9.43;5.20;;;;;;;;;;3353065;42;20087;-63
2022/07/27 12:30:39;;;;;;;9.57;5.15;;;;;;;;;;3346505;42;20138;-64
2022/07/27 12:33:06;;;;;;;8.43;4.75;;;;;;;;;;3353063;42;20119;-64
2022/07/27 12:35:44;;;;;;;8.87;5.00;;;;;;;;;;3356707;42;20092;-62
2022/07/27 12:38:09;;;;;;;10.85;5.60;;;;;;;;;;3346542;42;20135;-63
2022/07/27 12:40:44;;;;;;;8.77;4.78;;;;;;;;;;3359969;42;20111;-63
2022/07/27 12:43:16;;;;;;;10.63;5.35;;;;;;;;;;3344763;42;20108;-63
2022/07/27 12:45:42;;;;;;;11.07;5.37;;;;;;;;;;3343735;42;20554;-65
2022/07/27 12:48:09;;;;;;;13.20;5.30;;;;;;;;;;3353842;42;20606;-63
2022/07/27 12:50:36;;;;;;;9.70;5.00;;;;;;;;;;3350636;42;20705;-63
2022/07/27 12:53:02;;;;;;;10.23;5.07;;;;;;;;;;3349396;42;20095;-63
2022/07/27 12:55:28;;;;;;;9.63;5.30;;;;;;;;;;3359612;42;20115;-63
2022/07/27 12:57:54;;;;;;;11.40;5.80;;;;;;;;;;3341292;42;20181;-62
2022/07/27 13:00:22;;;;;;;9.43;5.20;;;;;;;;;;3352945;42;20315;-63
2022/07/27 13:02:48;;;;;;;9.02;5.00;;;;;;;;;;3347884;42;20096;-62
2022/07/27 13:05:14;;;;;;;9.85;5.00;;;;;;;;;;3359076;42;20475;-63
2022/07/27 13:07:41;;;;;;;11.37;4.90;;;;;;;;;;3344740;42;20113;-63
2022/07/27 13:10:09;;;;;;;9.75;4.80;;;;;;;;;;3347250;42;20594;-64
2022/07/27 13:12:35;;;;;;;10.75;4.72;;;;;;;;;;3357784;42;20140;-62
2022/07/27 13:15:02;;;;;;;12.23;4.80;;;;;;;;;;3347364;42;20546;-64
2022/07/27 13:17:30;;;;;;;9.40;4.78;;;;;;;;;;3358204;42;20119;-63
2022/07/27 13:19:55;;;;;;;10.70;4.57;;;;;;;;;;3356692;42;20170;-64
2022/07/27 13:22:21;;;;;;;12.68;5.22;;;;;;;;;;3357894;42;20123;-62
2022/07/27 13:24:47;;;;;;;10.82;5.63;;;;;;;;;;3351374;42;20501;-62
2022/07/27 13:27:13;;;;;;;9.00;4.72;;;;;;;;;;3360334;42;20092;-63
2022/07/27 13:29:40;;;;;;;8.20;4.63;;;;;;;;;;3359002;42;20171;-63
2022/07/27 13:32:06;;;;;;;12.15;5.45;;;;;;;;;;3360650;42;20083;-64
2022/07/27 13:34:32;;;;;;;12.70;5.25;;;;;;;;;;3349485;42;20166;-64
2022/07/27 13:36:58;;;;;;;11.02;5.70;;;;;;;;;;3351576;42;20092;-62
2022/07/27 13:39:24;;;;;;;9.80;5.30;;;;;;;;;;3352071;42;20111;-62
2022/07/27 13:41:51;;;;;;;11.05;5.10;;;;;;;;;;3343006;42;20518;-63
2022/07/27 13:44:21;;;;;;;10.75;5.28;;;;;;;;;;3352585;42;20104;-63
2022/07/27 13:46:47;;;;;;;8.70;4.75;;;;;;;;;;3353977;42;20095;-65
2022/07/27 13:49:13;;;;;;;9.73;4.67;;;;;;;;;;3352519;42;20088;-64
2022/07/27 13:51:39;;;;;;;9.52;5.20;;;;;;;;;;3359104;42;20093;-66
2022/07/27 13:54:05;;;;;;;9.15;4.90;;;;;;;;;;3360735;42;20115;-62
2022/07/27 13:56:33;;;;;;;9.77;4.88;;;;;;;;;;3361451;42;20084;-66
2022/07/27 13:58:59;;;;;;;9.18;4.78;;;;;;;;;;3360501;42;20107;-60
2022/07/27 14:01:25;;;;;;;8.53;5.10;;;;;;;;;;3341245;42;20774;-63
2022/07/27 14:03:51;;;;;;;9.77;5.07;;;;;;;;;;3350187;42;20699;-66
2022/07/27 14:06:18;;;;;;;8.60;4.80;;;;;;;;;;3357819;42;20107;-62
2022/07/27 14:08:44;;;;;;;10.55;5.00;;;;;;;;;;3360537;42;20088;-63
2022/07/27 14:11:10;;;;;;;12.05;5.28;;;;;;;;;;3345519;42;20089;-64
2022/07/27 14:13:36;;;;;;;8.80;4.57;;;;;;;;;;3357333;42;20184;-63
2022/07/27 14:16:02;;;;;;;8.95;4.78;;;;;;;;;;3363192;42;20147;-63
2022/07/27 14:18:29;;;;;;;10.00;4.85;;;;;;;;;;3356092;42;20157;-63
2022/07/27 14:21:00;;;;;;;9.88;4.80;;;;;;;;;;3344598;42;20084;-63
2022/07/27 14:23:26;;;;;;;9.00;4.80;;;;;;;;;;3350077;42;20178;-63
2022/07/27 14:25:53;;;;;;;9.13;4.70;;;;;;;;;;3358793;42;20167;-65
2022/07/27 14:28:19;;;;;;;8.10;4.60;;;;;;;;;;3347238;42;20622;-63
2022/07/27 14:30:45;;;;;;;8.32;4.53;;;;;;;;;;3361651;42;20095;-65
2022/07/27 14:33:11;;;;;;;10.65;4.68;;;;;;;;;;3343663;42;20115;-64
2022/07/27 14:35:37;;;;;;;9.60;4.80;;;;;;;;;;3361506;42;20079;-64
2022/07/27 14:38:03;;;;;;;8.98;4.85;;;;;;;;;;3353253;42;20092;-64